sensor_id;sensor_type;location;lat;lon;timestamp;temperature;humidity
21282;DHT22;10800;53.096;18.328;2022-07-18T00:04:22;12.20;99.90
21282;DHT22;10800;53.096;18.328;2022-07-18T00:09:31;12.10;99.90
21282;DHT22;10800;53.096;18.328;2022-07-18T00:14:39;12.00;99.90
21282;DHT22;10800;53.096;18.328;2022-07-18T00:19:47;12.00;99.90
21282;DHT22;10800;53.096;18.328;2022-07-18T00:25:15;11.90;99.90
21282;DHT22;10800;53.096;18.328;2022-07-18T00:30:23;11.90;99.90
21282;DHT22;10800;53.096;18.328;2022-07-18T00:35:34;11.90;99.90
21282;DHT22;10800;53.096;18.328;2022-07-18T00:40:48;11.80;99.90
21282;DHT22;10800;53.096;18.328;2022-07-18T00:45:55;11.80;99.90
21282;DHT22;10800;53.096;18.328;2022-07-18T00:51:12;11.70;99.90
21282;DHT22;10800;53.096;18.328;2022-07-18T00:56:20;11.70;99.90
21282;DHT22;10800;53.096;18.328;2022-07-18T01:01:31;11.70;99.90
21282;DHT22;10800;53.096;18.328;2022-07-18T01:07:12;11.60;99.90
21282;DHT22;10800;53.096;18.328;2022-07-18T01:12:23;11.60;99.90
21282;DHT22;10800;53.096;18.328;2022-07-18T01:17:32;11.70;99.90
21282;DHT22;10800;53.096;18.328;2022-07-18T01:23:00;11.70;99.90
21282;DHT22;10800;53.096;18.328;2022-07-18T01:28:08;11.60;99.90
21282;DHT22;10800;53.096;18.328;2022-07-18T01:33:16;11.50;99.90
21282;DHT22;10800;53.096;18.328;2022-07-18T01:38:22;11.40;99.90
21282;DHT22;10800;53.096;18.328;2022-07-18T01:43:30;11.30;99.90
21282;DHT22;10800;53.096;18.328;2022-07-18T01:48:40;11.30;99.90
21282;DHT22;10800;53.096;18.328;2022-07-18T01:53:57;11.20;99.90
21282;DHT22;10800;53.096;18.328;2022-07-18T01:59:06;11.10;99.90
21282;DHT22;10800;53.096;18.328;2022-07-18T02:04:24;11.10;99.90
21282;DHT22;10800;53.096;18.328;2022-07-18T02:09:31;11.00;99.90
21282;DHT22;10800;53.096;18.328;2022-07-18T02:14:38;11.00;99.90
21282;DHT22;10800;53.096;18.328;2022-07-18T02:19:46;11.00;99.90
21282;DHT22;10800;53.096;18.328;2022-07-18T02:25:04;10.90;99.90
21282;DHT22;10800;53.096;18.328;2022-07-18T02:30:13;10.90;99.90
21282;DHT22;10800;53.096;18.328;2022-07-18T02:35:38;10.90;99.90
21282;DHT22;10800;53.096;18.328;2022-07-18T02:40:50;10.80;99.90
21282;DHT22;10800;53.096;18.328;2022-07-18T02:46:03;10.80;99.90
21282;DHT22;10800;53.096;18.328;2022-07-18T02:51:12;10.80;99.90
21282;DHT22;10800;53.096;18.328;2022-07-18T02:56:17;10.80;99.90
21282;DHT22;10800;53.096;18.328;2022-07-18T03:01:23;10.80;99.90
21282;DHT22;10800;53.096;18.328;2022-07-18T03:06:29;10.80;99.90
21282;DHT22;10800;53.096;18.328;2022-07-18T03:11:37;10.80;99.90
21282;DHT22;10800;53.096;18.328;2022-07-18T03:16:57;10.90;99.90
21282;DHT22;10800;53.096;18.328;2022-07-18T03:22:36;11.00;99.90
21282;DHT22;10800;53.096;18.328;2022-07-18T03:27:43;11.10;99.90
21282;DHT22;10800;53.096;18.328;2022-07-18T03:32:54;11.20;99.90
21282;DHT22;10800;53.096;18.328;2022-07-18T03:38:01;11.20;99.90
21282;DHT22;10800;53.096;18.328;2022-07-18T03:43:08;11.20;99.90
21282;DHT22;10800;53.096;18.328;2022-07-18T03:48:35;11.30;99.90
21282;DHT22;10800;53.096;18.328;2022-07-18T03:53:44;11.30;99.90
21282;DHT22;10800;53.096;18.328;2022-07-18T03:58:56;11.40;99.90
21282;DHT22;10800;53.096;18.328;2022-07-18T04:04:04;11.60;99.90
21282;DHT22;10800;53.096;18.328;2022-07-18T04:09:12;11.70;99.90
21282;DHT22;10800;53.096;18.328;2022-07-18T04:14:21;11.90;99.90
21282;DHT22;10800;53.096;18.328;2022-07-18T04:19:28;12.10;99.90
21282;DHT22;10800;53.096;18.328;2022-07-18T04:24:38;12.20;99.90
21282;DHT22;10800;53.096;18.328;2022-07-18T04:30:09;12.30;99.90
21282;DHT22;10800;53.096;18.328;2022-07-18T04:35:16;12.50;99.90
21282;DHT22;10800;53.096;18.328;2022-07-18T04:40:40;12.50;99.90
21282;DHT22;10800;53.096;18.328;2022-07-18T04:45:50;12.50;99.90
21282;DHT22;10800;53.096;18.328;2022-07-18T04:51:11;12.50;99.90
21282;DHT22;10800;53.096;18.328;2022-07-18T04:56:42;12.60;99.90
21282;DHT22;10800;53.096;18.328;2022-07-18T05:01:56;12.80;99.90
21282;DHT22;10800;53.096;18.328;2022-07-18T05:07:03;13.00;99.90
21282;DHT22;10800;53.096;18.328;2022-07-18T05:12:08;13.20;99.90
21282;DHT22;10800;53.096;18.328;2022-07-18T05:17:24;13.50;99.90
21282;DHT22;10800;53.096;18.328;2022-07-18T05:22:29;13.80;99.90
21282;DHT22;10800;53.096;18.328;2022-07-18T05:27:40;14.20;99.90
21282;DHT22;10800;53.096;18.328;2022-07-18T05:32:53;14.50;99.90
21282;DHT22;10800;53.096;18.328;2022-07-18T05:38:00;14.80;99.90
21282;DHT22;10800;53.096;18.328;2022-07-18T05:43:05;15.20;99.90
21282;DHT22;10800;53.096;18.328;2022-07-18T05:48:11;15.50;99.90
21282;DHT22;10800;53.096;18.328;2022-07-18T05:53:16;15.80;99.90
21282;DHT22;10800;53.096;18.328;2022-07-18T05:58:22;16.10;99.90
21282;DHT22;10800;53.096;18.328;2022-07-18T06:03:29;16.30;99.90
21282;DHT22;10800;53.096;18.328;2022-07-18T06:08:34;16.50;99.90
21282;DHT22;10800;53.096;18.328;2022-07-18T06:13:42;16.60;99.90
21282;DHT22;10800;53.096;18.328;2022-07-18T06:18:49;16.70;99.90
21282;DHT22;10800;53.096;18.328;2022-07-18T06:23:57;16.90;99.90
21282;DHT22;10800;53.096;18.328;2022-07-18T06:29:04;17.10;99.90
21282;DHT22;10800;53.096;18.328;2022-07-18T06:34:10;17.30;99.90
21282;DHT22;10800;53.096;18.328;2022-07-18T06:39:15;17.50;99.90
21282;DHT22;10800;53.096;18.328;2022-07-18T06:44:23;17.70;99.90
21282;DHT22;10800;53.096;18.328;2022-07-18T06:49:29;17.90;99.90
21282;DHT22;10800;53.096;18.328;2022-07-18T06:54:36;18.20;99.90
21282;DHT22;10800;53.096;18.328;2022-07-18T06:59:44;18.80;99.90
21282;DHT22;10800;53.096;18.328;2022-07-18T07:04:54;19.30;99.90
21282;DHT22;10800;53.096;18.328;2022-07-18T07:10:01;19.50;99.90
21282;DHT22;10800;53.096;18.328;2022-07-18T07:15:08;19.50;99.90
21282;DHT22;10800;53.096;18.328;2022-07-18T07:20:18;19.40;99.90
21282;DHT22;10800;53.096;18.328;2022-07-18T07:25:47;19.60;99.90
21282;DHT22;10800;53.096;18.328;2022-07-18T07:30:53;20.30;99.90
21282;DHT22;10800;53.096;18.328;2022-07-18T07:36:06;21.30;96.60
21282;DHT22;10800;53.096;18.328;2022-07-18T07:41:13;22.00;95.10
21282;DHT22;10800;53.096;18.328;2022-07-18T07:46:21;22.80;92.20
21282;DHT22;10800;53.096;18.328;2022-07-18T07:51:26;23.10;87.40
21282;DHT22;10800;53.096;18.328;2022-07-18T07:56:35;23.20;86.10
21282;DHT22;10800;53.096;18.328;2022-07-18T08:01:43;22.80;86.90
21282;DHT22;10800;53.096;18.328;2022-07-18T08:06:49;22.70;86.60
21282;DHT22;10800;53.096;18.328;2022-07-18T08:11:55;22.60;85.10
21282;DHT22;10800;53.096;18.328;2022-07-18T08:17:04;22.30;86.60
21282;DHT22;10800;53.096;18.328;2022-07-18T08:22:10;22.40;87.10
21282;DHT22;10800;53.096;18.328;2022-07-18T08:27:16;22.40;84.90
21282;DHT22;10800;53.096;18.328;2022-07-18T08:32:23;23.10;84.80
21282;DHT22;10800;53.096;18.328;2022-07-18T08:37:29;23.30;80.70
21282;DHT22;10800;53.096;18.328;2022-07-18T08:42:35;23.30;83.70
21282;DHT22;10800;53.096;18.328;2022-07-18T08:47:44;23.20;81.80
21282;DHT22;10800;53.096;18.328;2022-07-18T08:52:53;23.80;80.60
21282;DHT22;10800;53.096;18.328;2022-07-18T08:58:01;24.00;78.70
21282;DHT22;10800;53.096;18.328;2022-07-18T09:03:08;24.50;75.90
21282;DHT22;10800;53.096;18.328;2022-07-18T09:08:18;24.70;77.40
21282;DHT22;10800;53.096;18.328;2022-07-18T09:13:36;25.40;72.30
21282;DHT22;10800;53.096;18.328;2022-07-18T09:18:47;25.20;70.70
21282;DHT22;10800;53.096;18.328;2022-07-18T09:23:54;25.50;72.00
21282;DHT22;10800;53.096;18.328;2022-07-18T09:29:00;25.20;67.30
21282;DHT22;10800;53.096;18.328;2022-07-18T09:34:07;25.60;65.20
21282;DHT22;10800;53.096;18.328;2022-07-18T09:39:19;26.00;63.60
21282;DHT22;10800;53.096;18.328;2022-07-18T09:44:27;25.30;63.40
21282;DHT22;10800;53.096;18.328;2022-07-18T09:49:33;25.50;63.60
21282;DHT22;10800;53.096;18.328;2022-07-18T09:54:43;25.50;65.60
21282;DHT22;10800;53.096;18.328;2022-07-18T09:59:50;25.60;66.10
21282;DHT22;10800;53.096;18.328;2022-07-18T10:04:56;25.30;64.90
21282;DHT22;10800;53.096;18.328;2022-07-18T10:10:01;24.60;67.40
21282;DHT22;10800;53.096;18.328;2022-07-18T10:15:08;24.50;67.90
21282;DHT22;10800;53.096;18.328;2022-07-18T10:20:14;24.60;66.00
21282;DHT22;10800;53.096;18.328;2022-07-18T10:25:22;24.70;65.90
21282;DHT22;10800;53.096;18.328;2022-07-18T10:30:41;24.80;67.70
21282;DHT22;10800;53.096;18.328;2022-07-18T10:36:02;24.90;67.20
21282;DHT22;10800;53.096;18.328;2022-07-18T10:41:13;24.80;67.60
21282;DHT22;10800;53.096;18.328;2022-07-18T10:46:19;24.40;69.20
21282;DHT22;10800;53.096;18.328;2022-07-18T10:51:31;24.10;70.60
21282;DHT22;10800;53.096;18.328;2022-07-18T11:01:51;24.80;70.70
21282;DHT22;10800;53.096;18.328;2022-07-18T11:07:08;26.20;65.80
21282;DHT22;10800;53.096;18.328;2022-07-18T11:12:30;26.50;59.50
21282;DHT22;10800;53.096;18.328;2022-07-18T11:23:21;26.00;62.20
21282;DHT22;10800;53.096;18.328;2022-07-18T11:28:28;25.60;64.70
21282;DHT22;10800;53.096;18.328;2022-07-18T11:33:39;25.80;63.50
21282;DHT22;10800;53.096;18.328;2022-07-18T11:38:50;26.80;57.90
21282;DHT22;10800;53.096;18.328;2022-07-18T11:43:57;27.60;58.40
21282;DHT22;10800;53.096;18.328;2022-07-18T11:49:05;27.90;53.80
21282;DHT22;10800;53.096;18.328;2022-07-18T11:54:14;28.00;53.10
21282;DHT22;10800;53.096;18.328;2022-07-18T11:59:20;27.10;57.40
21282;DHT22;10800;53.096;18.328;2022-07-18T12:04:27;27.20;57.70
21282;DHT22;10800;53.096;18.328;2022-07-18T12:09:32;27.10;55.90
21282;DHT22;10800;53.096;18.328;2022-07-18T12:14:40;27.40;56.30
21282;DHT22;10800;53.096;18.328;2022-07-18T12:19:45;27.60;57.20
21282;DHT22;10800;53.096;18.328;2022-07-18T12:24:54;27.70;56.30
21282;DHT22;10800;53.096;18.328;2022-07-18T12:35:21;27.10;58.90
21282;DHT22;10800;53.096;18.328;2022-07-18T12:40:45;27.70;57.20
21282;DHT22;10800;53.096;18.328;2022-07-18T12:45:53;28.50;54.80
21282;DHT22;10800;53.096;18.328;2022-07-18T12:51:04;28.70;54.60
21282;DHT22;10800;53.096;18.328;2022-07-18T12:56:10;28.90;56.00
21282;DHT22;10800;53.096;18.328;2022-07-18T13:01:18;28.70;56.30
21282;DHT22;10800;53.096;18.328;2022-07-18T13:06:24;27.70;56.10
21282;DHT22;10800;53.096;18.328;2022-07-18T13:11:30;27.90;55.80
21282;DHT22;10800;53.096;18.328;2022-07-18T13:16:44;28.20;57.10
21282;DHT22;10800;53.096;18.328;2022-07-18T13:21:51;28.50;56.90
21282;DHT22;10800;53.096;18.328;2022-07-18T13:26:57;28.50;55.10
21282;DHT22;10800;53.096;18.328;2022-07-18T13:32:02;28.40;55.20
21282;DHT22;10800;53.096;18.328;2022-07-18T13:37:08;28.20;56.30
21282;DHT22;10800;53.096;18.328;2022-07-18T13:42:13;28.20;55.20
21282;DHT22;10800;53.096;18.328;2022-07-18T13:47:20;28.00;52.20
21282;DHT22;10800;53.096;18.328;2022-07-18T13:52:25;28.20;53.00
21282;DHT22;10800;53.096;18.328;2022-07-18T13:57:31;28.50;52.70
21282;DHT22;10800;53.096;18.328;2022-07-18T14:02:56;27.70;52.80
21282;DHT22;10800;53.096;18.328;2022-07-18T14:08:02;27.20;53.50
21282;DHT22;10800;53.096;18.328;2022-07-18T14:13:08;27.30;55.80
21282;DHT22;10800;53.096;18.328;2022-07-18T14:18:13;27.80;54.70
21282;DHT22;10800;53.096;18.328;2022-07-18T14:23:19;27.60;55.00
21282;DHT22;10800;53.096;18.328;2022-07-18T14:28:24;27.10;55.30
21282;DHT22;10800;53.096;18.328;2022-07-18T14:33:30;27.20;56.10
21282;DHT22;10800;53.096;18.328;2022-07-18T14:38:35;27.00;53.80
21282;DHT22;10800;53.096;18.328;2022-07-18T14:43:41;26.90;57.30
21282;DHT22;10800;53.096;18.328;2022-07-18T14:48:46;27.00;56.40
21282;DHT22;10800;53.096;18.328;2022-07-18T14:53:54;27.50;55.00
21282;DHT22;10800;53.096;18.328;2022-07-18T14:58:59;27.90;53.70
21282;DHT22;10800;53.096;18.328;2022-07-18T15:04:05;27.70;53.10
21282;DHT22;10800;53.096;18.328;2022-07-18T15:09:12;27.20;54.10
21282;DHT22;10800;53.096;18.328;2022-07-18T15:14:18;26.80;54.60
21282;DHT22;10800;53.096;18.328;2022-07-18T15:19:23;26.40;55.20
21282;DHT22;10800;53.096;18.328;2022-07-18T15:24:29;26.10;56.40
21282;DHT22;10800;53.096;18.328;2022-07-18T15:29:34;25.90;57.00
21282;DHT22;10800;53.096;18.328;2022-07-18T15:34:40;25.90;57.80
21282;DHT22;10800;53.096;18.328;2022-07-18T15:39:45;25.90;57.80
21282;DHT22;10800;53.096;18.328;2022-07-18T15:44:50;25.80;58.70
21282;DHT22;10800;53.096;18.328;2022-07-18T15:49:56;25.70;59.00
21282;DHT22;10800;53.096;18.328;2022-07-18T15:55:02;25.50;60.10
21282;DHT22;10800;53.096;18.328;2022-07-18T16:00:09;25.30;60.80
21282;DHT22;10800;53.096;18.328;2022-07-18T16:05:14;25.10;61.80
21282;DHT22;10800;53.096;18.328;2022-07-18T16:10:20;25.00;62.20
21282;DHT22;10800;53.096;18.328;2022-07-18T16:15:45;24.80;63.30
21282;DHT22;10800;53.096;18.328;2022-07-18T16:20:51;24.80;63.80
21282;DHT22;10800;53.096;18.328;2022-07-18T16:25:56;24.60;63.80
21282;DHT22;10800;53.096;18.328;2022-07-18T16:31:01;24.50;64.90
21282;DHT22;10800;53.096;18.328;2022-07-18T16:36:07;24.40;65.00
21282;DHT22;10800;53.096;18.328;2022-07-18T16:41:13;24.20;66.10
21282;DHT22;10800;53.096;18.328;2022-07-18T16:46:18;24.10;66.20
21282;DHT22;10800;53.096;18.328;2022-07-18T16:51:28;24.00;66.50
21282;DHT22;10800;53.096;18.328;2022-07-18T16:56:35;23.90;67.30
21282;DHT22;10800;53.096;18.328;2022-07-18T17:01:49;23.90;67.60
21282;DHT22;10800;53.096;18.328;2022-07-18T17:07:09;23.80;68.50
21282;DHT22;10800;53.096;18.328;2022-07-18T17:12:14;23.70;69.10
21282;DHT22;10800;53.096;18.328;2022-07-18T17:17:21;23.60;69.90
21282;DHT22;10800;53.096;18.328;2022-07-18T17:22:29;23.50;71.50
21282;DHT22;10800;53.096;18.328;2022-07-18T17:27:35;23.40;71.80
21282;DHT22;10800;53.096;18.328;2022-07-18T17:32:42;23.30;72.50
21282;DHT22;10800;53.096;18.328;2022-07-18T17:37:48;23.30;73.40
21282;DHT22;10800;53.096;18.328;2022-07-18T17:42:55;23.20;74.60
21282;DHT22;10800;53.096;18.328;2022-07-18T17:48:01;23.20;75.90
21282;DHT22;10800;53.096;18.328;2022-07-18T17:53:06;23.10;76.00
21282;DHT22;10800;53.096;18.328;2022-07-18T17:58:13;23.00;76.10
21282;DHT22;10800;53.096;18.328;2022-07-18T18:03:19;23.00;77.20
21282;DHT22;10800;53.096;18.328;2022-07-18T18:08:25;22.80;78.50
21282;DHT22;10800;53.096;18.328;2022-07-18T18:13:30;22.70;79.10
21282;DHT22;10800;53.096;18.328;2022-07-18T18:18:36;22.70;80.90
21282;DHT22;10800;53.096;18.328;2022-07-18T18:23:42;22.60;83.20
21282;DHT22;10800;53.096;18.328;2022-07-18T18:28:47;22.40;87.90
21282;DHT22;10800;53.096;18.328;2022-07-18T18:33:56;22.20;92.60
21282;DHT22;10800;53.096;18.328;2022-07-18T18:39:02;22.10;93.90
21282;DHT22;10800;53.096;18.328;2022-07-18T18:44:07;22.00;96.60
21282;DHT22;10800;53.096;18.328;2022-07-18T18:49:14;21.90;99.90
21282;DHT22;10800;53.096;18.328;2022-07-18T18:54:19;21.70;99.90
21282;DHT22;10800;53.096;18.328;2022-07-18T18:59:25;21.60;99.90
21282;DHT22;10800;53.096;18.328;2022-07-18T19:04:30;21.50;99.90
21282;DHT22;10800;53.096;18.328;2022-07-18T19:09:36;21.40;99.90
21282;DHT22;10800;53.096;18.328;2022-07-18T19:14:43;21.30;99.90
21282;DHT22;10800;53.096;18.328;2022-07-18T19:19:49;21.10;99.90
21282;DHT22;10800;53.096;18.328;2022-07-18T19:24:54;21.00;99.90
21282;DHT22;10800;53.096;18.328;2022-07-18T19:29:59;21.00;99.90
21282;DHT22;10800;53.096;18.328;2022-07-18T19:35:05;20.90;99.90
21282;DHT22;10800;53.096;18.328;2022-07-18T19:40:12;20.80;99.90
21282;DHT22;10800;53.096;18.328;2022-07-18T19:45:18;20.80;99.90
21282;DHT22;10800;53.096;18.328;2022-07-18T19:50:23;20.70;99.90
21282;DHT22;10800;53.096;18.328;2022-07-18T19:55:28;20.60;99.90
21282;DHT22;10800;53.096;18.328;2022-07-18T20:00:35;20.60;99.90
21282;DHT22;10800;53.096;18.328;2022-07-18T20:05:42;20.50;99.90
21282;DHT22;10800;53.096;18.328;2022-07-18T20:10:47;20.50;99.90
21282;DHT22;10800;53.096;18.328;2022-07-18T20:15:53;20.40;99.90
21282;DHT22;10800;53.096;18.328;2022-07-18T20:20:59;20.40;99.90
21282;DHT22;10800;53.096;18.328;2022-07-18T20:26:04;20.30;99.90
21282;DHT22;10800;53.096;18.328;2022-07-18T20:31:10;20.20;99.90
21282;DHT22;10800;53.096;18.328;2022-07-18T20:36:15;20.10;99.90
21282;DHT22;10800;53.096;18.328;2022-07-18T20:41:21;20.10;99.90
21282;DHT22;10800;53.096;18.328;2022-07-18T20:46:28;20.00;99.90
21282;DHT22;10800;53.096;18.328;2022-07-18T20:51:34;19.90;99.90
21282;DHT22;10800;53.096;18.328;2022-07-18T20:56:41;19.90;99.90
21282;DHT22;10800;53.096;18.328;2022-07-18T21:01:47;19.90;99.90
21282;DHT22;10800;53.096;18.328;2022-07-18T21:06:52;19.80;99.90
21282;DHT22;10800;53.096;18.328;2022-07-18T21:11:58;19.80;99.90
21282;DHT22;10800;53.096;18.328;2022-07-18T21:17:03;19.80;99.90
21282;DHT22;10800;53.096;18.328;2022-07-18T21:22:09;19.70;99.90
21282;DHT22;10800;53.096;18.328;2022-07-18T21:27:21;19.70;99.90
21282;DHT22;10800;53.096;18.328;2022-07-18T21:32:23;19.50;99.90
21282;DHT22;10800;53.096;18.328;2022-07-18T21:37:29;19.50;99.90
21282;DHT22;10800;53.096;18.328;2022-07-18T21:42:35;19.40;99.90
21282;DHT22;10800;53.096;18.328;2022-07-18T21:47:40;19.40;99.90
21282;DHT22;10800;53.096;18.328;2022-07-18T21:52:46;19.40;99.90
21282;DHT22;10800;53.096;18.328;2022-07-18T21:57:51;19.30;99.90
21282;DHT22;10800;53.096;18.328;2022-07-18T22:02:57;19.30;99.90
21282;DHT22;10800;53.096;18.328;2022-07-18T22:08:03;19.20;99.90
21282;DHT22;10800;53.096;18.328;2022-07-18T22:13:08;19.20;99.90
21282;DHT22;10800;53.096;18.328;2022-07-18T22:18:14;19.20;99.90
21282;DHT22;10800;53.096;18.328;2022-07-18T22:23:21;19.10;99.90
21282;DHT22;10800;53.096;18.328;2022-07-18T22:28:26;19.10;99.90
21282;DHT22;10800;53.096;18.328;2022-07-18T22:33:32;19.10;99.90
21282;DHT22;10800;53.096;18.328;2022-07-18T22:38:38;19.10;99.90
21282;DHT22;10800;53.096;18.328;2022-07-18T22:43:43;19.00;99.90
21282;DHT22;10800;53.096;18.328;2022-07-18T22:48:49;19.00;99.90
21282;DHT22;10800;53.096;18.328;2022-07-18T22:53:54;18.90;99.90
21282;DHT22;10800;53.096;18.328;2022-07-18T22:59:00;18.80;99.90
21282;DHT22;10800;53.096;18.328;2022-07-18T23:04:06;18.90;99.90
21282;DHT22;10800;53.096;18.328;2022-07-18T23:09:12;18.90;99.90
21282;DHT22;10800;53.096;18.328;2022-07-18T23:14:17;18.90;99.90
21282;DHT22;10800;53.096;18.328;2022-07-18T23:19:22;18.80;99.90
21282;DHT22;10800;53.096;18.328;2022-07-18T23:24:28;18.80;99.90
21282;DHT22;10800;53.096;18.328;2022-07-18T23:29:34;18.80;99.90
21282;DHT22;10800;53.096;18.328;2022-07-18T23:34:42;18.70;99.90
21282;DHT22;10800;53.096;18.328;2022-07-18T23:39:47;18.60;99.90
21282;DHT22;10800;53.096;18.328;2022-07-18T23:44:53;18.60;99.90
21282;DHT22;10800;53.096;18.328;2022-07-18T23:49:59;18.50;99.90
21282;DHT22;10800;53.096;18.328;2022-07-18T23:55:06;18.50;99.90
